sensor_id;sensor_type;location;lat;lon;timestamp;pressure;altitude;pressure_sealevel;temperature;humidity
77897;BME280;67092;64.282;21.056;2023-05-19T00:00:57;102284.95;;;20.90;26.98
77897;BME280;67092;64.282;21.056;2023-05-19T00:03:23;102285.82;;;21.07;26.86
77897;BME280;67092;64.282;21.056;2023-05-19T00:05:48;102289.51;;;20.68;26.98
77897;BME280;67092;64.282;21.056;2023-05-19T00:08:15;102291.79;;;20.83;27.11
77897;BME280;67092;64.282;21.056;2023-05-19T00:10:40;102296.38;;;20.88;27.07
77897;BME280;67092;64.282;21.056;2023-05-19T00:13:05;102293.58;;;20.60;27.11
77897;BME280;67092;64.282;21.056;2023-05-19T00:15:31;102295.39;;;20.51;27.20
77897;BME280;67092;64.282;21.056;2023-05-19T00:17:56;102294.66;;;20.77;27.26
77897;BME280;67092;64.282;21.056;2023-05-19T00:20:22;102296.95;;;21.00;27.01
77897;BME280;67092;64.282;21.056;2023-05-19T00:22:47;102295.40;;;20.67;27.07
77897;BME280;67092;64.282;21.056;2023-05-19T00:25:13;102295.37;;;20.85;27.26
77897;BME280;67092;64.282;21.056;2023-05-19T00:27:38;102293.12;;;20.55;27.33
77897;BME280;67092;64.282;21.056;2023-05-19T00:30:05;102298.17;;;20.61;27.47
77897;BME280;67092;64.282;21.056;2023-05-19T00:32:29;102296.84;;;20.85;27.29
77897;BME280;67092;64.282;21.056;2023-05-19T00:34:55;102300.04;;;20.68;27.44
77897;BME280;67092;64.282;21.056;2023-05-19T00:37:21;102309.10;;;20.82;27.57
77897;BME280;67092;64.282;21.056;2023-05-19T00:39:46;102301.89;;;20.89;27.53
77897;BME280;67092;64.282;21.056;2023-05-19T00:42:12;102312.85;;;20.85;27.60
77897;BME280;67092;64.282;21.056;2023-05-19T00:44:39;102319.82;;;20.64;27.53
77897;BME280;67092;64.282;21.056;2023-05-19T00:47:03;102319.19;;;20.68;27.22
77897;BME280;67092;64.282;21.056;2023-05-19T00:49:29;102321.62;;;20.14;27.76
77897;BME280;67092;64.282;21.056;2023-05-19T00:51:54;102323.25;;;20.62;27.53
77897;BME280;67092;64.282;21.056;2023-05-19T00:54:20;102320.95;;;20.95;27.39
77897;BME280;67092;64.282;21.056;2023-05-19T00:56:46;102323.62;;;20.68;27.42
77897;BME280;67092;64.282;21.056;2023-05-19T00:59:11;102323.95;;;20.76;27.58
77897;BME280;67092;64.282;21.056;2023-05-19T01:01:37;102323.25;;;20.66;27.42
77897;BME280;67092;64.282;21.056;2023-05-19T01:04:02;102324.99;;;20.46;27.58
77897;BME280;67092;64.282;21.056;2023-05-19T01:06:28;102331.90;;;20.54;27.27
77897;BME280;67092;64.282;21.056;2023-05-19T01:08:53;102332.69;;;20.52;27.52
77897;BME280;67092;64.282;21.056;2023-05-19T01:11:19;102334.39;;;20.79;27.44
77897;BME280;67092;64.282;21.056;2023-05-19T01:13:45;102332.40;;;20.67;27.65
77897;BME280;67092;64.282;21.056;2023-05-19T01:16:15;102336.01;;;20.86;27.41
77897;BME280;67092;64.282;21.056;2023-05-19T01:18:42;102340.97;;;20.47;27.38
77897;BME280;67092;64.282;21.056;2023-05-19T01:21:18;102336.62;;;20.51;27.75
77897;BME280;67092;64.282;21.056;2023-05-19T01:23:33;102337.09;;;20.71;27.56
77897;BME280;67092;64.282;21.056;2023-05-19T01:30:47;102346.86;;;20.94;27.32
77897;BME280;67092;64.282;21.056;2023-05-19T01:33:13;102349.49;;;20.65;27.61
77897;BME280;67092;64.282;21.056;2023-05-19T01:35:37;102353.76;;;20.59;27.47
77897;BME280;67092;64.282;21.056;2023-05-19T01:38:03;102352.38;;;20.43;27.58
77897;BME280;67092;64.282;21.056;2023-05-19T01:40:27;102353.97;;;20.44;27.82
77897;BME280;67092;64.282;21.056;2023-05-19T01:42:54;102354.82;;;20.74;27.56
77897;BME280;67092;64.282;21.056;2023-05-19T01:45:18;102356.27;;;20.23;28.03
77897;BME280;67092;64.282;21.056;2023-05-19T01:47:46;102356.89;;;20.37;27.85
77897;BME280;67092;64.282;21.056;2023-05-19T01:50:09;102360.73;;;19.98;27.81
77897;BME280;67092;64.282;21.056;2023-05-19T01:52:35;102362.99;;;20.52;27.73
77897;BME280;67092;64.282;21.056;2023-05-19T01:55:00;102364.65;;;20.54;27.69
77897;BME280;67092;64.282;21.056;2023-05-19T01:57:31;102366.08;;;20.25;27.76
77897;BME280;67092;64.282;21.056;2023-05-19T01:59:56;102366.15;;;20.42;27.59
77897;BME280;67092;64.282;21.056;2023-05-19T02:02:24;102364.84;;;20.29;27.63
77897;BME280;67092;64.282;21.056;2023-05-19T02:04:49;102370.32;;;20.49;27.72
77897;BME280;67092;64.282;21.056;2023-05-19T02:07:14;102368.59;;;20.36;27.84
77897;BME280;67092;64.282;21.056;2023-05-19T02:09:39;102366.45;;;20.47;27.75
77897;BME280;67092;64.282;21.056;2023-05-19T02:12:04;102368.04;;;20.38;27.83
77897;BME280;67092;64.282;21.056;2023-05-19T02:14:31;102368.02;;;20.30;27.90
77897;BME280;67092;64.282;21.056;2023-05-19T02:16:51;102370.89;;;20.78;27.42
77897;BME280;67092;64.282;21.056;2023-05-19T02:19:21;102371.46;;;20.45;27.72
77897;BME280;67092;64.282;21.056;2023-05-19T02:21:42;102370.45;;;20.67;27.23
77897;BME280;67092;64.282;21.056;2023-05-19T02:24:07;102370.55;;;20.44;27.49
77897;BME280;67092;64.282;21.056;2023-05-19T02:26:33;102372.89;;;20.85;27.28
77897;BME280;67092;64.282;21.056;2023-05-19T02:28:59;102374.10;;;20.57;27.26
77897;BME280;67092;64.282;21.056;2023-05-19T02:31:24;102374.68;;;20.34;27.54
77897;BME280;67092;64.282;21.056;2023-05-19T02:33:50;102377.16;;;20.25;27.96
77897;BME280;67092;64.282;21.056;2023-05-19T02:36:15;102372.84;;;20.46;27.78
77897;BME280;67092;64.282;21.056;2023-05-19T02:38:41;102376.75;;;20.84;27.08
77897;BME280;67092;64.282;21.056;2023-05-19T02:41:07;102374.49;;;20.58;27.54
77897;BME280;67092;64.282;21.056;2023-05-19T02:43:32;102375.03;;;20.49;27.70
77897;BME280;67092;64.282;21.056;2023-05-19T02:45:58;102377.98;;;20.28;27.92
77897;BME280;67092;64.282;21.056;2023-05-19T02:48:23;102383.08;;;20.21;27.98
77897;BME280;67092;64.282;21.056;2023-05-19T02:50:49;102383.29;;;20.17;27.76
77897;BME280;67092;64.282;21.056;2023-05-19T02:53:15;102383.17;;;20.61;27.83
77897;BME280;67092;64.282;21.056;2023-05-19T02:55:41;102383.02;;;20.42;27.73
77897;BME280;67092;64.282;21.056;2023-05-19T02:58:06;102381.73;;;20.30;27.90
77897;BME280;67092;64.282;21.056;2023-05-19T03:00:31;102381.06;;;20.63;27.30
77897;BME280;67092;64.282;21.056;2023-05-19T03:02:57;102382.98;;;20.33;27.59
77897;BME280;67092;64.282;21.056;2023-05-19T03:05:23;102383.41;;;20.74;27.36
77897;BME280;67092;64.282;21.056;2023-05-19T03:07:49;102386.32;;;20.22;27.93
77897;BME280;67092;64.282;21.056;2023-05-19T03:10:14;102390.09;;;20.29;27.82
77897;BME280;67092;64.282;21.056;2023-05-19T03:12:39;102392.39;;;20.21;27.92
77897;BME280;67092;64.282;21.056;2023-05-19T03:15:06;102393.10;;;20.59;27.45
77897;BME280;67092;64.282;21.056;2023-05-19T03:17:31;102394.15;;;20.32;27.74
77897;BME280;67092;64.282;21.056;2023-05-19T03:19:56;102395.69;;;20.50;27.34
77897;BME280;67092;64.282;21.056;2023-05-19T03:22:22;102392.97;;;21.06;26.98
77897;BME280;67092;64.282;21.056;2023-05-19T03:24:47;102392.59;;;21.05;26.95
77897;BME280;67092;64.282;21.056;2023-05-19T03:27:13;102391.88;;;20.69;27.30
77897;BME280;67092;64.282;21.056;2023-05-19T03:29:39;102393.99;;;20.58;27.43
77897;BME280;67092;64.282;21.056;2023-05-19T03:32:05;102396.18;;;20.44;27.59
77897;BME280;67092;64.282;21.056;2023-05-19T03:34:30;102399.81;;;20.23;27.59
77897;BME280;67092;64.282;21.056;2023-05-19T03:36:56;102402.02;;;20.26;27.80
77897;BME280;67092;64.282;21.056;2023-05-19T03:39:21;102403.93;;;19.93;27.85
77897;BME280;67092;64.282;21.056;2023-05-19T03:41:47;102405.95;;;19.89;28.16
77897;BME280;67092;64.282;21.056;2023-05-19T03:44:12;102400.53;;;20.29;27.72
77897;BME280;67092;64.282;21.056;2023-05-19T03:46:38;102397.49;;;20.46;27.53
77897;BME280;67092;64.282;21.056;2023-05-19T03:49:04;102402.51;;;20.35;27.65
77897;BME280;67092;64.282;21.056;2023-05-19T03:51:29;102403.08;;;20.57;27.64
77897;BME280;67092;64.282;21.056;2023-05-19T03:53:55;102402.59;;;20.33;27.92
77897;BME280;67092;64.282;21.056;2023-05-19T03:56:21;102405.13;;;20.32;27.65
77897;BME280;67092;64.282;21.056;2023-05-19T03:58:46;102403.97;;;20.39;27.58
77897;BME280;67092;64.282;21.056;2023-05-19T04:01:12;102404.65;;;21.01;27.41
77897;BME280;67092;64.282;21.056;2023-05-19T04:03:37;102409.10;;;20.39;27.58
77897;BME280;67092;64.282;21.056;2023-05-19T04:06:03;102412.93;;;20.22;27.71
77897;BME280;67092;64.282;21.056;2023-05-19T04:08:28;102409.56;;;20.69;27.50
77897;BME280;67092;64.282;21.056;2023-05-19T04:10:54;102407.65;;;20.94;27.24
77897;BME280;67092;64.282;21.056;2023-05-19T04:13:20;102406.91;;;20.70;27.26
77897;BME280;67092;64.282;21.056;2023-05-19T04:15:45;102402.18;;;20.51;27.41
77897;BME280;67092;64.282;21.056;2023-05-19T04:18:11;102402.94;;;20.11;27.62
77897;BME280;67092;64.282;21.056;2023-05-19T04:20:37;102406.11;;;20.34;27.65
77897;BME280;67092;64.282;21.056;2023-05-19T04:23:02;102405.50;;;20.40;27.54
77897;BME280;67092;64.282;21.056;2023-05-19T04:25:28;102405.30;;;20.07;27.66
77897;BME280;67092;64.282;21.056;2023-05-19T04:27:53;102403.76;;;20.17;27.54
77897;BME280;67092;64.282;21.056;2023-05-19T04:30:19;102404.84;;;20.34;27.34
77897;BME280;67092;64.282;21.056;2023-05-19T04:32:45;102406.03;;;20.75;27.43
77897;BME280;67092;64.282;21.056;2023-05-19T04:35:10;102403.77;;;20.97;27.49
77897;BME280;67092;64.282;21.056;2023-05-19T04:37:36;102404.19;;;20.08;27.86
77897;BME280;67092;64.282;21.056;2023-05-19T04:40:01;102409.33;;;20.06;27.89
77897;BME280;67092;64.282;21.056;2023-05-19T04:42:27;102412.29;;;19.97;27.74
77897;BME280;67092;64.282;21.056;2023-05-19T04:44:53;102411.44;;;19.91;28.04
77897;BME280;67092;64.282;21.056;2023-05-19T04:47:18;102411.96;;;20.68;27.26
77897;BME280;67092;64.282;21.056;2023-05-19T04:49:44;102413.77;;;20.10;27.83
77897;BME280;67092;64.282;21.056;2023-05-19T04:52:10;102413.54;;;20.27;27.71
77897;BME280;67092;64.282;21.056;2023-05-19T04:54:36;102416.36;;;19.81;28.16
77897;BME280;67092;64.282;21.056;2023-05-19T04:57:01;102419.20;;;20.43;27.59
77897;BME280;67092;64.282;21.056;2023-05-19T04:59:26;102424.01;;;20.67;27.29
77897;BME280;67092;64.282;21.056;2023-05-19T05:01:52;102427.62;;;20.52;27.46
77897;BME280;67092;64.282;21.056;2023-05-19T05:04:18;102425.32;;;20.14;27.88
77897;BME280;67092;64.282;21.056;2023-05-19T05:06:43;102424.17;;;20.34;27.68
77897;BME280;67092;64.282;21.056;2023-05-19T05:09:09;102424.67;;;20.43;27.61
77897;BME280;67092;64.282;21.056;2023-05-19T05:11:35;102427.50;;;20.28;27.77
77897;BME280;67092;64.282;21.056;2023-05-19T05:14:00;102431.16;;;20.48;27.60
77897;BME280;67092;64.282;21.056;2023-05-19T05:16:26;102434.58;;;20.61;27.74
77897;BME280;67092;64.282;21.056;2023-05-19T05:18:52;102437.92;;;20.99;27.33
77897;BME280;67092;64.282;21.056;2023-05-19T05:21:17;102438.81;;;20.47;27.60
77897;BME280;67092;64.282;21.056;2023-05-19T05:23:43;102438.47;;;20.59;27.50
77897;BME280;67092;64.282;21.056;2023-05-19T05:26:14;102441.14;;;20.61;27.47
77897;BME280;67092;64.282;21.056;2023-05-19T05:28:34;102443.26;;;20.55;27.45
77897;BME280;67092;64.282;21.056;2023-05-19T05:30:59;102446.62;;;20.90;27.14
77897;BME280;67092;64.282;21.056;2023-05-19T05:33:25;102445.83;;;20.66;27.38
77897;BME280;67092;64.282;21.056;2023-05-19T05:35:51;102447.25;;;20.30;27.80
77897;BME280;67092;64.282;21.056;2023-05-19T05:38:16;102448.32;;;20.68;27.35
77897;BME280;67092;64.282;21.056;2023-05-19T05:40:42;102449.03;;;21.17;26.64
77897;BME280;67092;64.282;21.056;2023-05-19T05:43:07;102447.62;;;20.67;27.40
77897;BME280;67092;64.282;21.056;2023-05-19T05:45:33;102450.57;;;20.38;27.45
77897;BME280;67092;64.282;21.056;2023-05-19T05:48:00;102453.29;;;20.59;27.50
77897;BME280;67092;64.282;21.056;2023-05-19T05:50:25;102454.30;;;20.58;27.51
77897;BME280;67092;64.282;21.056;2023-05-19T05:52:51;102454.27;;;20.73;27.32
77897;BME280;67092;64.282;21.056;2023-05-19T05:55:16;102457.08;;;20.72;27.38
77897;BME280;67092;64.282;21.056;2023-05-19T05:57:41;102454.95;;;20.35;27.77
77897;BME280;67092;64.282;21.056;2023-05-19T06:00:08;102457.60;;;20.72;27.36
77897;BME280;67092;64.282;21.056;2023-05-19T06:02:32;102458.79;;;20.71;27.40
77897;BME280;67092;64.282;21.056;2023-05-19T06:04:58;102455.46;;;20.14;28.00
77897;BME280;67092;64.282;21.056;2023-05-19T06:07:23;102459.95;;;20.43;27.71
77897;BME280;67092;64.282;21.056;2023-05-19T06:09:49;102458.26;;;20.39;27.75
77897;BME280;67092;64.282;21.056;2023-05-19T06:12:15;102461.09;;;20.83;27.56
77897;BME280;67092;64.282;21.056;2023-05-19T06:14:40;102461.65;;;20.34;27.81
77897;BME280;67092;64.282;21.056;2023-05-19T06:17:06;102463.31;;;20.45;27.67
77897;BME280;67092;64.282;21.056;2023-05-19T06:19:31;102461.92;;;20.51;27.59
77897;BME280;67092;64.282;21.056;2023-05-19T06:21:57;102459.88;;;20.26;27.87
77897;BME280;67092;64.282;21.056;2023-05-19T06:24:23;102462.25;;;20.38;27.77
77897;BME280;67092;64.282;21.056;2023-05-19T06:26:48;102462.68;;;20.56;27.32
77897;BME280;67092;64.282;21.056;2023-05-19T06:29:14;102466.31;;;20.61;27.47
77897;BME280;67092;64.282;21.056;2023-05-19T06:31:40;102470.03;;;20.20;27.94
77897;BME280;67092;64.282;21.056;2023-05-19T06:34:05;102468.70;;;20.60;27.46
77897;BME280;67092;64.282;21.056;2023-05-19T06:36:31;102469.54;;;20.38;27.71
77897;BME280;67092;64.282;21.056;2023-05-19T06:38:56;102472.78;;;20.71;27.38
77897;BME280;67092;64.282;21.056;2023-05-19T06:41:22;102472.03;;;20.50;27.55
77897;BME280;67092;64.282;21.056;2023-05-19T06:43:47;102474.15;;;20.73;27.60
77897;BME280;67092;64.282;21.056;2023-05-19T06:46:13;102476.80;;;20.60;27.41
77897;BME280;67092;64.282;21.056;2023-05-19T06:48:39;102478.79;;;20.69;27.34
77897;BME280;67092;64.282;21.056;2023-05-19T06:51:04;102476.88;;;20.15;27.63
77897;BME280;67092;64.282;21.056;2023-05-19T06:53:30;102475.00;;;20.48;27.53
77897;BME280;67092;64.282;21.056;2023-05-19T06:55:56;102478.02;;;20.82;27.48
77897;BME280;67092;64.282;21.056;2023-05-19T06:58:21;102478.11;;;20.33;27.74
77897;BME280;67092;64.282;21.056;2023-05-19T07:00:47;102479.73;;;20.50;27.82
77897;BME280;67092;64.282;21.056;2023-05-19T07:03:12;102485.76;;;19.94;28.20
77897;BME280;67092;64.282;21.056;2023-05-19T07:05:38;102491.38;;;19.79;28.39
77897;BME280;67092;64.282;21.056;2023-05-19T07:08:04;102493.48;;;20.09;28.04
77897;BME280;67092;64.282;21.056;2023-05-19T07:10:29;102495.03;;;20.06;28.07
77897;BME280;67092;64.282;21.056;2023-05-19T07:12:55;102494.48;;;20.37;27.97
77897;BME280;67092;64.282;21.056;2023-05-19T07:15:20;102494.30;;;20.36;27.77
77897;BME280;67092;64.282;21.056;2023-05-19T07:17:46;102492.06;;;20.04;28.06
77897;BME280;67092;64.282;21.056;2023-05-19T07:20:12;102488.35;;;20.04;28.09
77897;BME280;67092;64.282;21.056;2023-05-19T07:22:37;102490.62;;;19.86;28.28
77897;BME280;67092;64.282;21.056;2023-05-19T07:25:03;102492.86;;;20.67;27.57
77897;BME280;67092;64.282;21.056;2023-05-19T07:27:29;102495.16;;;20.16;28.32
77897;BME280;67092;64.282;21.056;2023-05-19T07:29:54;102493.96;;;20.32;28.35
77897;BME280;67092;64.282;21.056;2023-05-19T07:32:20;102488.29;;;20.65;28.07
77897;BME280;67092;64.282;21.056;2023-05-19T07:34:45;102486.54;;;20.56;28.29
77897;BME280;67092;64.282;21.056;2023-05-19T07:37:11;102487.34;;;19.96;29.15
77897;BME280;67092;64.282;21.056;2023-05-19T07:39:36;102485.56;;;19.89;29.31
77897;BME280;67092;64.282;21.056;2023-05-19T07:42:02;102488.81;;;20.01;29.32
77897;BME280;67092;64.282;21.056;2023-05-19T07:44:28;102491.04;;;20.58;29.04
77897;BME280;67092;64.282;21.056;2023-05-19T07:46:53;102491.60;;;20.10;29.42
77897;BME280;67092;64.282;21.056;2023-05-19T07:49:19;102490.51;;;20.05;29.57
77897;BME280;67092;64.282;21.056;2023-05-19T07:51:44;102482.20;;;20.44;29.23
77897;BME280;67092;64.282;21.056;2023-05-19T07:54:10;102485.68;;;20.65;29.03
77897;BME280;67092;64.282;21.056;2023-05-19T07:56:35;102485.97;;;20.76;28.94
77897;BME280;67092;64.282;21.056;2023-05-19T07:59:02;102482.40;;;20.10;29.76
77897;BME280;67092;64.282;21.056;2023-05-19T08:01:28;102479.23;;;21.04;29.09
77897;BME280;67092;64.282;21.056;2023-05-19T08:03:52;102482.88;;;20.22;29.92
77897;BME280;67092;64.282;21.056;2023-05-19T08:06:18;102481.32;;;20.49;29.69
77897;BME280;67092;64.282;21.056;2023-05-19T08:08:43;102482.90;;;20.63;29.61
77897;BME280;67092;64.282;21.056;2023-05-19T08:11:09;102482.40;;;20.51;29.83
77897;BME280;67092;64.282;21.056;2023-05-19T08:13:35;102483.00;;;21.32;29.03
77897;BME280;67092;64.282;21.056;2023-05-19T08:16:00;102488.71;;;20.62;29.95
77897;BME280;67092;64.282;21.056;2023-05-19T08:18:26;102488.61;;;20.71;29.99
77897;BME280;67092;64.282;21.056;2023-05-19T08:20:51;102491.29;;;20.82;29.74
77897;BME280;67092;64.282;21.056;2023-05-19T08:23:17;102491.30;;;20.30;30.58
77897;BME280;67092;64.282;21.056;2023-05-19T08:25:43;102491.83;;;20.82;30.30
77897;BME280;67092;64.282;21.056;2023-05-19T08:28:09;102487.05;;;20.89;30.35
77897;BME280;67092;64.282;21.056;2023-05-19T08:30:34;102486.72;;;20.87;30.14
77897;BME280;67092;64.282;21.056;2023-05-19T08:33:00;102485.25;;;21.16;29.77
77897;BME280;67092;64.282;21.056;2023-05-19T08:35:25;102481.64;;;21.02;30.35
77897;BME280;67092;64.282;21.056;2023-05-19T08:37:51;102480.95;;;20.58;30.94
77897;BME280;67092;64.282;21.056;2023-05-19T08:40:17;102478.45;;;20.95;30.78
77897;BME280;67092;64.282;21.056;2023-05-19T08:42:42;102473.71;;;20.93;30.42
77897;BME280;67092;64.282;21.056;2023-05-19T08:45:08;102478.19;;;20.70;30.96
77897;BME280;67092;64.282;21.056;2023-05-19T08:47:33;102470.49;;;20.31;31.08
77897;BME280;67092;64.282;21.056;2023-05-19T08:50:03;102464.74;;;20.73;30.67
77897;BME280;67092;64.282;21.056;2023-05-19T08:52:31;102467.07;;;20.67;31.09
77897;BME280;67092;64.282;21.056;2023-05-19T08:54:57;102469.02;;;21.40;29.90
77897;BME280;67092;64.282;21.056;2023-05-19T08:57:16;102478.28;;;21.31;29.69
77897;BME280;67092;64.282;21.056;2023-05-19T08:59:42;102470.91;;;21.34;29.81
77897;BME280;67092;64.282;21.056;2023-05-19T09:02:08;102469.95;;;21.14;29.48
77897;BME280;67092;64.282;21.056;2023-05-19T09:04:33;102466.83;;;21.10;29.66
77897;BME280;67092;64.282;21.056;2023-05-19T09:06:58;102464.94;;;20.47;30.17
77897;BME280;67092;64.282;21.056;2023-05-19T09:09:24;102469.90;;;20.68;29.91
77897;BME280;67092;64.282;21.056;2023-05-19T09:11:49;102471.16;;;20.94;29.54
77897;BME280;67092;64.282;21.056;2023-05-19T09:14:15;102473.46;;;20.81;29.26
77897;BME280;67092;64.282;21.056;2023-05-19T09:16:41;102469.30;;;20.69;29.86
77897;BME280;67092;64.282;21.056;2023-05-19T09:19:12;102469.81;;;20.43;29.54
77897;BME280;67092;64.282;21.056;2023-05-19T09:21:32;102473.11;;;20.60;29.55
77897;BME280;67092;64.282;21.056;2023-05-19T09:24:03;102472.60;;;20.44;29.65
77897;BME280;67092;64.282;21.056;2023-05-19T09:26:23;102467.93;;;20.30;29.72
77897;BME280;67092;64.282;21.056;2023-05-19T09:28:49;102465.31;;;20.49;29.47
77897;BME280;67092;64.282;21.056;2023-05-19T09:31:14;102468.71;;;20.40;29.51
77897;BME280;67092;64.282;21.056;2023-05-19T09:33:41;102463.21;;;20.68;29.21
77897;BME280;67092;64.282;21.056;2023-05-19T09:36:06;102465.61;;;20.64;28.86
77897;BME280;67092;64.282;21.056;2023-05-19T09:38:31;102460.69;;;20.33;29.23
77897;BME280;67092;64.282;21.056;2023-05-19T09:40:58;102461.96;;;20.67;29.04
77897;BME280;67092;64.282;21.056;2023-05-19T09:43:23;102459.02;;;20.68;29.01
77897;BME280;67092;64.282;21.056;2023-05-19T09:45:49;102462.83;;;20.60;28.81
77897;BME280;67092;64.282;21.056;2023-05-19T09:48:14;102461.42;;;20.51;29.14
77897;BME280;67092;64.282;21.056;2023-05-19T09:50:39;102456.60;;;20.12;29.58
77897;BME280;67092;64.282;21.056;2023-05-19T09:53:05;102455.96;;;20.45;29.14
77897;BME280;67092;64.282;21.056;2023-05-19T09:55:30;102463.49;;;20.39;28.87
77897;BME280;67092;64.282;21.056;2023-05-19T09:57:56;102463.84;;;20.63;28.58
77897;BME280;67092;64.282;21.056;2023-05-19T10:00:22;102460.76;;;20.54;28.56
77897;BME280;67092;64.282;21.056;2023-05-19T10:02:48;102457.61;;;20.23;29.23
77897;BME280;67092;64.282;21.056;2023-05-19T10:05:14;102456.24;;;20.39;28.72
77897;BME280;67092;64.282;21.056;2023-05-19T10:07:39;102452.69;;;20.27;28.83
77897;BME280;67092;64.282;21.056;2023-05-19T10:10:08;102456.28;;;20.44;28.87
77897;BME280;67092;64.282;21.056;2023-05-19T10:12:30;102451.11;;;20.29;28.52
77897;BME280;67092;64.282;21.056;2023-05-19T10:14:55;102449.06;;;20.78;28.49
77897;BME280;67092;64.282;21.056;2023-05-19T10:17:21;102456.67;;;20.56;28.67
77897;BME280;67092;64.282;21.056;2023-05-19T10:19:47;102453.43;;;20.64;28.56
77897;BME280;67092;64.282;21.056;2023-05-19T10:22:12;102451.89;;;20.46;28.73
77897;BME280;67092;64.282;21.056;2023-05-19T10:24:38;102460.00;;;20.63;28.30
77897;BME280;67092;64.282;21.056;2023-05-19T10:27:07;102461.23;;;20.87;28.28
77897;BME280;67092;64.282;21.056;2023-05-19T10:29:35;102459.58;;;20.50;28.62
77897;BME280;67092;64.282;21.056;2023-05-19T10:31:55;102462.96;;;20.54;28.39
77897;BME280;67092;64.282;21.056;2023-05-19T10:34:33;102460.86;;;20.76;28.30
77897;BME280;67092;64.282;21.056;2023-05-19T10:36:48;102461.00;;;20.67;28.40
77897;BME280;67092;64.282;21.056;2023-05-19T10:39:16;102457.46;;;20.60;28.19
77897;BME280;67092;64.282;21.056;2023-05-19T10:41:44;102457.30;;;20.50;28.21
77897;BME280;67092;64.282;21.056;2023-05-19T10:44:08;102455.53;;;20.89;28.08
77897;BME280;67092;64.282;21.056;2023-05-19T10:46:29;102448.01;;;20.27;28.47
77897;BME280;67092;64.282;21.056;2023-05-19T10:48:54;102448.78;;;20.40;28.58
77897;BME280;67092;64.282;21.056;2023-05-19T10:51:19;102446.66;;;20.64;28.31
77897;BME280;67092;64.282;21.056;2023-05-19T10:53:45;102455.79;;;20.44;28.47
77897;BME280;67092;64.282;21.056;2023-05-19T10:56:11;102454.27;;;20.50;28.37
77897;BME280;67092;64.282;21.056;2023-05-19T10:58:38;102456.17;;;20.42;28.45
77897;BME280;67092;64.282;21.056;2023-05-19T11:01:06;102460.30;;;20.42;28.19
77897;BME280;67092;64.282;21.056;2023-05-19T11:03:27;102456.64;;;20.61;27.92
77897;BME280;67092;64.282;21.056;2023-05-19T11:10:44;102457.51;;;20.73;27.96
77897;BME280;67092;64.282;21.056;2023-05-19T11:13:18;102455.26;;;20.56;28.14
77897;BME280;67092;64.282;21.056;2023-05-19T11:15:35;102459.17;;;20.66;28.00
77897;BME280;67092;64.282;21.056;2023-05-19T11:18:01;102456.20;;;20.47;28.15
77897;BME280;67092;64.282;21.056;2023-05-19T11:20:28;102456.00;;;20.40;28.20
77897;BME280;67092;64.282;21.056;2023-05-19T11:23:04;102459.68;;;20.50;28.05
77897;BME280;67092;64.282;21.056;2023-05-19T11:27:45;102456.71;;;20.63;27.86
77897;BME280;67092;64.282;21.056;2023-05-19T11:30:10;102452.61;;;20.61;27.62
77897;BME280;67092;64.282;21.056;2023-05-19T11:32:35;102454.50;;;20.53;27.91
77897;BME280;67092;64.282;21.056;2023-05-19T11:35:01;102454.04;;;20.77;27.62
77897;BME280;67092;64.282;21.056;2023-05-19T11:37:26;102452.15;;;20.86;27.49
77897;BME280;67092;64.282;21.056;2023-05-19T11:39:52;102453.88;;;20.51;27.62
77897;BME280;67092;64.282;21.056;2023-05-19T11:42:17;102459.39;;;20.47;27.64
77897;BME280;67092;64.282;21.056;2023-05-19T11:44:43;102460.43;;;20.77;27.50
77897;BME280;67092;64.282;21.056;2023-05-19T11:47:08;102461.96;;;20.84;27.47
77897;BME280;67092;64.282;21.056;2023-05-19T11:49:34;102459.74;;;20.81;27.47
77897;BME280;67092;64.282;21.056;2023-05-19T11:52:00;102464.95;;;20.77;27.51
77897;BME280;67092;64.282;21.056;2023-05-19T11:54:29;102461.54;;;20.19;27.57
77897;BME280;67092;64.282;21.056;2023-05-19T11:56:51;102462.37;;;20.85;27.37
77897;BME280;67092;64.282;21.056;2023-05-19T11:59:16;102460.72;;;20.47;27.75
77897;BME280;67092;64.282;21.056;2023-05-19T12:01:42;102456.23;;;20.58;27.66
77897;BME280;67092;64.282;21.056;2023-05-19T12:04:08;102457.65;;;20.69;27.45
77897;BME280;67092;64.282;21.056;2023-05-19T12:06:33;102453.86;;;20.85;27.25
77897;BME280;67092;64.282;21.056;2023-05-19T12:08:59;102450.43;;;21.30;26.83
77897;BME280;67092;64.282;21.056;2023-05-19T12:11:27;102451.66;;;21.20;27.04
77897;BME280;67092;64.282;21.056;2023-05-19T12:13:50;102448.14;;;20.30;27.75
77897;BME280;67092;64.282;21.056;2023-05-19T12:16:19;102451.13;;;20.44;27.87
77897;BME280;67092;64.282;21.056;2023-05-19T12:18:41;102450.22;;;20.67;27.32
77897;BME280;67092;64.282;21.056;2023-05-19T12:21:07;102451.10;;;20.35;27.60
77897;BME280;67092;64.282;21.056;2023-05-19T12:23:32;102450.13;;;21.00;27.15
77897;BME280;67092;64.282;21.056;2023-05-19T12:25:58;102454.25;;;20.91;27.25
77897;BME280;67092;64.282;21.056;2023-05-19T12:28:24;102454.66;;;20.55;27.56
77897;BME280;67092;64.282;21.056;2023-05-19T12:30:50;102452.64;;;20.82;27.09
77897;BME280;67092;64.282;21.056;2023-05-19T12:33:15;102456.48;;;21.12;27.76
77897;BME280;67092;64.282;21.056;2023-05-19T12:35:41;102456.12;;;21.21;28.36
77897;BME280;67092;64.282;21.056;2023-05-19T12:38:06;102456.77;;;20.77;29.66
77897;BME280;67092;64.282;21.056;2023-05-19T12:40:32;102454.80;;;21.02;29.84
77897;BME280;67092;64.282;21.056;2023-05-19T12:42:57;102452.64;;;20.78;30.13